ニューヨーク/JFK の空港の天気 - METARとTAF

ジョン・F・ケネディ国際空港 ( KJFK / JFK ) - アメリカ ニューヨーク州ニューヨーク
飛行場実況気象(Metar)
観測時間04/21 10:51 EDT (04/21 14:51 UTC)
風向・風速南東 5m/s
視程10km以上
天気現象
全天の8割程度の雲 雲底高度 820m
全天の8割程度の雲 雲底高度 3350m
全天の8割程度の雲 雲底高度 6100m
全天の8割程度の雲 雲底高度 7620m
気温13.9℃
湿度89%
気圧1016hPa
METARKJFK 211451Z 13010KT 10SM BKN027 BKN110 BKN200 BKN250 14/12 A3000 RMK AO2 SLP160 60001 T01390122 51017
過去の天気等 Google飛行場航空写真 Wunderground天気予報

過去48時間のMETAR

飛行場予報(TAF)
発表時間: 4/21 11:12 EDT (4/21 15:12 UTC)
予報対象時間: 21日11時 EDT ~ 22日14時 EDT
風向・風速南南東 5m/s
視程10km以上
全天の4割程度の雲 雲底高度 910m
全天の8割程度の雲 雲底高度 2440m
21日11時 EDT ~ 21日13時 EDT に一時的に
全天の8割程度の雲 雲底高度 910m
21日13時 EDT から
風向・風速南南東 6m/s
視程10km以上
全天の4割程度の雲 雲底高度 2440m
全天の8割程度の雲 雲底高度 7620m
21日22時 EDT から
風向・風速不定 3m/s
視程10km以上
全天の8割程度の雲 雲底高度 2440m
22日8時 EDT から
風向・風速北北東 3m/s
視程10km以上
全天の4割程度の雲 雲底高度 910m
全天の8割程度の雲 雲底高度 1520m
KJFK 211512Z 2115/2218 15010KT P6SM SCT030 BKN080
TEMPO 2115/2117 BKN030
FM211700 16011KT P6SM SCT080 BKN250
FM220200 VRB05KT P6SM BKN080
FM221200 03006KT P6SM SCT030 BKN050